Latest Weather Observations for Dennes Point

IDT60901

Issued at 4:51 pm EST Monday 30 May 2016 (issued every 10 minutes, with the page automatically refreshed every 10 minutes)

About weather observations | Map of Hobart area stations | Latest observations for Hobart area | Other Formats
Station Details ID: 094255 Name: DENNES POINT Lat: -43.06 Lon: 147.36 Height: 5.67 m
Data from the previous 72 hours. | See also: Recent months at Dennes Point
Date/Time
EST
Tmp

°C
App
Tmp
°C
Dew
Point
°C
Rel
Hum
%
Delta-T

°C
Wind Press
QNH
hPa
Press
MSL
hPa
Rain
since
9 am
mm
Dir
 
Spd
km/h
Gust
km/h
Spd
kts
Gust
kts
30/04:30pm 10.0 6.9 3.7 65 2.8 NNW 9 13 5 7 1029.0 1029.0 0.0
30/04:00pm 9.9 6.9 4.1 67 2.5 N 9 11 5 6 1028.8 1028.8 0.0
30/03:30pm 9.9 6.6 4.3 68 2.5 N 11 13 6 7 1028.5 1028.5 0.0
30/03:00pm 9.8 6.4 4.2 68 2.5 N 11 15 6 8 1028.3 1028.3 0.0
30/02:30pm 10.4 6.6 3.9 64 2.9 N 13 15 7 8 1028.1 1028.1 0.0
30/02:00pm 10.6 7.2 4.1 64 2.9 N 11 13 6 7 1028.0 1028.0 0.0
30/01:30pm 10.9 8.3 4.4 64 2.9 NNW 7 11 4 6 1028.1 1028.1 0.0
30/01:00pm 11.3 8.9 4.5 63 3.0 WNW 6 9 3 5 1028.2 1028.2 0.0
30/12:30pm 10.9 8.0 4.6 65 2.8 WNW 9 11 5 6 1028.2 1028.2 0.0
30/12:00pm 10.2 6.9 4.4 67 2.6 WNW 11 13 6 7 1028.3 1028.3 0.0
30/11:30am 9.9 5.8 4.3 68 2.5 WNW 15 17 8 9 1028.5 1028.5 0.0
30/11:00am 9.3 5.1 3.7 68 2.4 W 15 19 8 10 1028.6 1028.6 0.0
30/10:30am 9.0 4.8 3.8 70 2.3 WNW 15 19 8 10 1028.6 1028.6 0.0
30/10:00am 8.7 5.2 3.5 70 2.2 W 11 15 6 8 1028.3 1028.3 0.0
30/09:30am 8.5 4.3 3.8 72 2.0 W 15 17 8 9 1028.0 1028.0 0.0
30/09:00am 8.0 4.2 3.7 74 1.8 W 13 17 7 9 1027.8 1027.8 1.8
30/08:30am 7.2 2.9 3.4 77 1.6 W 15 17 8 9 1027.5 1027.5 1.8
30/08:00am 6.9 3.0 3.2 77 1.5 W 13 17 7 9 1027.2 1027.2 1.8
30/07:30am 7.0 2.7 3.3 77 1.6 W 15 19 8 10 1026.8 1026.8 1.8
30/07:00am 7.7 3.9 3.7 76 1.7 WSW 13 17 7 9 1026.6 1026.6 1.8
30/06:30am 7.6 3.7 3.5 75 1.7 SW 13 17 7 9 1026.3 1026.3 1.8
30/06:00am 8.1 3.6 4.1 76 1.7 W 17 20 9 11 1025.8 1025.8 1.8
30/05:30am 8.4 3.9 4.2 75 1.8 WSW 17 20 9 11 1025.4 1025.4 1.8
30/05:00am 8.4 4.3 4.2 75 1.8 WSW 15 20 8 11 1025.1 1025.1 1.8
30/04:30am 8.6 4.9 4.4 75 1.8 SW 13 19 7 10 1024.8 1024.8 1.8
30/04:00am 8.6 4.2 4.6 76 1.8 SW 17 22 9 12 1024.5 1024.5 1.8
30/03:30am 8.9 4.6 5.1 77 1.7 SW 17 22 9 12 1024.2 1024.2 1.8
30/03:00am 8.8 4.2 5.4 79 1.5 SW 19 22 10 12 1023.9 1023.9 1.8
30/02:30am 8.3 4.5 5.8 84 1.1 SW 15 22 8 12 1023.8 1023.8 1.8
30/02:00am 7.7 4.6 5.5 86 1.0 SW 11 15 6 8 1023.6 1023.6 1.8
30/01:30am 7.1 4.2 4.9 86 1.0 SW 9 13 5 7 1023.2 1023.2 1.8
30/01:00am 7.2 4.0 5.0 86 1.0 SW 11 15 6 8 1022.9 1022.9 1.8
30/12:30am 7.5 4.4 5.5 87 0.9 SW 11 13 6 7 1022.7 1022.7 1.8
30/12:00am 8.6 5.7 6.4 86 1.0 SW 11 13 6 7 1022.7 1022.7 1.8
 
Date/Time
EST
Tmp

°C
App
Tmp
°C
Dew
Point
°C
Rel
Hum
%
Delta-T

°C
Wind Press
QNH
hPa
Press
MSL
hPa
Rain
since
9 am
mm
Dir
 
Spd
km/h
Gust
km/h
Spd
kts
Gust
kts
29/11:30pm 8.8 6.4 6.9 88 0.9 SW 9 13 5 7 1022.5 1022.5 1.8
29/11:00pm 9.0 5.9 7.3 89 0.8 SW 13 15 7 8 1022.4 1022.4 1.8
29/10:30pm 8.8 6.1 7.3 90 0.7 SW 11 15 6 8 1022.1 1022.1 1.8
29/10:00pm 8.4 6.0 6.9 90 0.7 SSW 9 13 5 7 1021.9 1021.9 1.8
29/09:30pm 8.8 6.5 7.3 90 0.7 SSW 9 13 5 7 1021.8 1021.8 1.8
29/09:00pm 8.8 6.5 7.4 91 0.7 SW 9 13 5 7 1021.5 1021.5 1.8
29/08:30pm 8.9 6.3 7.7 92 0.6 SW 11 15 6 8 1021.3 1021.3 1.8
29/08:00pm 8.6 6.7 7.4 92 0.6 SW 7 9 4 5 1021.0 1021.0 1.8
29/07:30pm 9.3 7.5 7.9 91 0.7 SSW 7 9 4 5 1020.7 1020.7 1.8
29/07:00pm 9.5 7.7 7.9 90 0.8 SSW 7 13 4 7 1020.4 1020.4 1.6
29/06:30pm 9.6 7.8 8.0 90 0.8 SSW 7 11 4 6 1019.9 1019.9 1.2
29/06:00pm 9.6 7.4 8.0 90 0.8 SW 9 11 5 6 1019.5 1019.5 1.2
29/05:30pm 9.5 7.3 7.9 90 0.8 SW 9 13 5 7 1019.1 1019.1 1.2
29/05:00pm 9.5 7.9 8.1 91 0.7 SW 6 7 3 4 1018.6 1018.6 1.2
29/04:30pm 9.8 8.1 8.2 90 0.8 SW 7 9 4 5 1018.3 1018.3 1.2
29/04:00pm 10.3 7.8 8.4 88 0.9 SW 11 15 6 8 1017.9 1017.9 1.0
29/03:30pm 10.7 7.5 8.3 85 1.2 SW 15 20 8 11 1017.6 1017.6 1.0
29/03:00pm 11.1 7.8 8.1 82 1.5 SW 15 20 8 11 1017.3 1017.3 0.8
29/02:30pm 11.5 8.7 8.7 83 1.4 WSW 13 20 7 11 1016.8 1016.8 0.8
29/02:00pm 10.6 8.6 8.5 87 1.0 SW 9 13 5 7 1016.6 1016.6 0.8
29/01:30pm 10.8 8.3 8.4 85 1.2 SSW 11 15 6 8 1016.5 1016.5 0.8
29/01:00pm 11.8 7.9 8.5 80 1.6 SW 19 28 10 15 1016.1 1016.1 0.2
29/12:30pm 11.6 8.1 8.8 83 1.4 SW 17 20 9 11 1015.9 1015.9 0.2
29/12:00pm 11.4 9.1 9.0 85 1.2 WSW 11 15 6 8 1015.9 1015.9 0.2
29/11:30am 11.2 9.3 9.1 87 1.0 SSW 9 13 5 7 1016.0 1016.0 0.2
29/11:00am 10.7 7.8 8.1 84 1.3 WSW 13 20 7 11 1016.0 1016.0 0.2
29/10:30am 10.3 7.7 7.9 85 1.2 SW 11 17 6 9 1015.8 1015.8 0.0
29/10:00am 10.3 6.3 8.1 86 1.1 SW 19 22 10 12 1015.4 1015.4 0.0
29/09:30am 9.9 6.2 7.8 87 1.0 SW 17 24 9 13 1015.3 1015.3 0.0
29/09:00am 9.9 5.8 7.8 87 1.0 WSW 19 22 10 12 1014.8 1014.8 4.8
29/08:30am 9.6 6.2 7.5 87 1.0 SW 15 22 8 12 1014.4 1014.4 4.8
29/08:00am 9.6 6.2 7.7 88 0.9 SW 15 20 8 11 1014.0 1014.0 4.8
29/07:30am 9.5 5.3 7.6 88 0.9 WSW 19 24 10 13 1013.6 1013.6 4.8
29/07:00am 9.3 6.7 7.6 89 0.8 SW 11 19 6 10 1013.2 1013.2 4.4
29/06:30am 9.3 6.2 7.4 88 0.9 SW 13 19 7 10 1012.9 1012.9 4.4
29/06:00am 9.5 4.7 7.4 87 1.0 SW 22 30 12 16 1012.4 1012.4 3.8
29/05:30am 9.4 4.6 7.3 87 1.0 WSW 22 26 12 14 1012.0 1012.0 3.2
29/05:00am 9.5 5.1 7.3 86 1.0 SW 20 26 11 14 1011.8 1011.8 3.0
29/04:30am 9.4 5.1 7.0 85 1.1 SW 19 26 10 14 1011.5 1011.5 3.0
29/04:00am 9.4 5.9 7.2 86 1.0 SW 15 22 8 12 1011.2 1011.2 3.0
29/03:30am 9.2 5.7 7.0 86 1.0 SW 15 22 8 12 1011.2 1011.2 3.0
29/03:00am 9.3 4.0 6.9 85 1.1 WSW 24 30 13 16 1011.0 1011.0 2.8
29/02:30am 9.3 2.9 7.1 86 1.0 WSW 30 35 16 19 1010.7 1010.7 2.6
29/02:00am 9.5 3.9 7.1 85 1.1 WSW 26 33 14 18 1010.5 1010.5 2.2
29/01:30am 9.4 4.1 7.0 85 1.1 WSW 24 32 13 17 1010.4 1010.4 2.0
29/01:00am 9.4 4.1 6.7 83 1.3 SW 24 30 13 16 1010.4 1010.4 1.6
29/12:30am 9.5 5.9 6.9 84 1.2 SW 15 22 8 12 1010.4 1010.4 1.6
29/12:00am 9.3 5.3 6.6 83 1.3 SW 17 24 9 13 1010.4 1010.4 1.6
 
Date/Time
EST
Tmp

°C
App
Tmp
°C
Dew
Point
°C
Rel
Hum
%
Delta-T

°C
Wind Press
QNH
hPa
Press
MSL
hPa
Rain
since
9 am
mm
Dir
 
Spd
km/h
Gust
km/h
Spd
kts
Gust
kts
28/11:30pm 9.8 5.4 6.7 81 1.5 WSW 19 26 10 14 1010.3 1010.3 0.2
28/11:00pm 9.6 6.0 6.7 82 1.4 WSW 15 20 8 11 1010.2 1010.2 0.0
28/10:30pm 9.8 5.5 7.2 84 1.2 WSW 19 22 10 12 1010.1 1010.1 0.0
28/10:00pm 9.4 5.9 7.0 85 1.1 WSW 15 19 8 10 1010.2 1010.2 0.0
28/09:30pm 8.9 6.3 6.3 84 1.2 SSW 9 13 5 7 1010.2 1010.2 0.0
28/09:00pm 8.3 5.6 5.8 84 1.1 SW 9 13 5 7 1009.9 1009.9 0.0
28/08:30pm 8.1 5.7 5.4 83 1.2 SW 7 13 4 7 1009.7 1009.7 0.0
28/08:00pm 8.7 6.1 6.0 83 1.2 SW 9 13 5 7 1009.4 1009.4 0.0
28/07:30pm 8.9 5.9 6.0 82 1.3 SSW 11 13 6 7 1009.4 1009.4 0.0
28/07:00pm 8.5 5.8 5.4 81 1.4 SSW 9 11 5 6 1009.3 1009.3 0.0
28/06:30pm 8.9 6.6 5.6 80 1.5 SSW 7 11 4 6 1008.9 1008.9 0.0
28/06:00pm 9.1 6.8 5.7 79 1.5 SSW 7 11 4 6 1008.6 1008.6 0.0
28/05:30pm 9.4 7.3 5.8 78 1.6 SW 6 9 3 5 1008.3 1008.3 0.0
28/05:00pm 9.3 7.0 4.9 74 2.0 WSW 6 7 3 4 1008.1 1008.1 0.0
28/04:30pm 10.1 9.0 5.1 71 2.3 CALM 0 0 0 0 1007.7 1007.7 0.0
28/04:00pm 10.6 8.4 5.4 70 2.4 W 6 9 3 5 1007.5 1007.5 0.0
28/03:30pm 11.9 10.3 6.2 68 2.7 ENE 4 6 2 3 1007.3 1007.3 0.0
28/03:00pm 12.4 10.5 6.5 67 2.8 ENE 6 6 3 3 1007.1 1007.1 0.0
28/02:30pm 11.7 9.4 5.8 67 2.7 E 7 9 4 5 1006.8 1006.8 0.0
28/02:00pm 12.5 10.4 5.9 64 3.1 NE 6 7 3 4 1006.7 1006.7 0.0
28/01:30pm 13.1 11.8 6.2 63 3.3 NE 2 7 1 4 1006.6 1006.6 0.0
28/01:00pm 12.7 11.0 6.1 64 3.1 NE 4 7 2 4 1006.8 1006.8 0.0
28/12:30pm 12.5 10.4 5.9 64 3.1 NNW 6 9 3 5 1006.9 1006.9 0.0
28/12:00pm 12.0 9.9 5.9 66 2.9 NNE 6 7 3 4 1007.1 1007.1 0.0
28/11:30am 11.7 10.0 6.0 68 2.7 N 4 6 2 3 1007.4 1007.4 0.0
28/11:00am 11.1 9.0 5.8 70 2.5 N 6 7 3 4 1007.6 1007.6 0.0
28/10:30am 10.9 8.9 6.1 72 2.2 N 6 9 3 5 1007.6 1007.6 0.0
28/10:00am 10.2 7.6 6.0 75 1.9 N 9 11 5 6 1007.5 1007.5 0.0
28/09:30am 9.6 6.2 5.8 77 1.7 NNE 13 15 7 8 1007.4 1007.4 0.0
28/09:00am 9.6 6.9 5.8 77 1.7 N 9 13 5 7 1007.6 1007.6 0.0
28/08:30am 8.9 5.0 5.5 79 1.5 N 15 17 8 9 1007.7 1007.7 0.0
28/08:00am 8.8 4.6 5.5 80 1.5 NNE 17 20 9 11 1007.6 1007.6 0.0
28/07:30am 8.9 6.2 5.6 80 1.5 NNE 9 15 5 8 1007.5 1007.5 0.0
28/07:00am 8.4 6.8 4.4 76 1.8 SSW 2 6 1 3 1007.3 1007.3 0.0
28/06:30am 7.6 5.0 4.0 78 1.6 SW 7 9 4 5 1007.3 1007.3 0.0
28/06:00am 7.5 5.4 3.7 77 1.6 WSW 4 6 2 3 1007.2 1007.2 0.0
28/05:30am 7.8 5.7 3.8 76 1.7 SW 4 6 2 3 1007.0 1007.0 0.0
28/05:00am 7.8 5.7 4.0 77 1.6 SW 4 6 2 3 1007.1 1007.1 0.0
28/04:30am 8.3 5.0 4.5 77 1.7 WNW 11 13 6 7 1007.1 1007.1 0.0
28/04:00am 7.8 5.8 4.2 78 1.6 SW 4 7 2 4 1007.0 1007.0 0.0
28/03:30am 7.7 5.6 3.9 77 1.6 SSW 4 6 2 3 1006.9 1006.9 0.0
28/03:00am 7.8 5.1 3.8 76 1.7 W 7 9 4 5 1007.0 1007.0 0.0
28/02:30am 8.6 5.3 4.6 76 1.8 W 11 15 6 8 1007.1 1007.1 0.0
28/02:00am 8.0 5.0 4.0 76 1.7 W 9 13 5 7 1007.1 1007.1 0.0
28/01:30am 9.1 4.7 4.9 75 1.9 WNW 17 22 9 12 1007.0 1007.0 0.0
28/01:00am 8.2 5.2 4.0 75 1.8 W 9 13 5 7 1007.2 1007.2 0.0
28/12:30am 8.3 5.6 3.9 74 1.9 WSW 7 11 4 6 1007.3 1007.3 0.0
28/12:00am 8.4 5.9 4.0 74 1.9 WNW 6 9 3 5 1007.4 1007.4 0.0
 
Date/Time
EST
Tmp

°C
App
Tmp
°C
Dew
Point
°C
Rel
Hum
%
Delta-T

°C
Wind Press
QNH
hPa
Press
MSL
hPa
Rain
since
9 am
mm
Dir
 
Spd
km/h
Gust
km/h
Spd
kts
Gust
kts
27/11:30pm 9.3 6.4 4.5 72 2.1 W 9 11 5 6 1007.4 1007.4 0.0
27/11:00pm 9.4 6.1 4.8 73 2.1 W 11 15 6 8 1007.4 1007.4 0.0
27/10:30pm 9.7 5.7 5.1 73 2.1 WNW 15 19 8 10 1007.5 1007.5 0.0
27/10:00pm 9.2 6.0 5.0 75 1.9 W 11 13 6 7 1007.7 1007.7 0.0
27/09:30pm 9.7 6.5 5.3 74 2.0 W 11 13 6 7 1007.6 1007.6 0.0
27/09:00pm 9.7 7.4 5.5 75 1.9 WNW 7 11 4 6 1007.6 1007.6 0.0
27/08:30pm 9.7 6.9 5.1 73 2.1 WSW 9 13 5 7 1007.5 1007.5 0.0
27/08:00pm 9.8 7.1 5.4 74 2.0 W 9 13 5 7 1007.4 1007.4 0.0
27/07:30pm 10.3 7.7 5.9 74 2.0 WSW 9 13 5 7 1007.2 1007.2 0.0
27/07:00pm 10.3 6.9 5.7 73 2.1 WSW 13 15 7 8 1007.0 1007.0 0.0
27/06:30pm 10.4 7.7 5.8 73 2.1 SW 9 15 5 8 1006.7 1006.7 0.0
27/06:00pm 10.2 7.8 5.2 71 2.3 SSW 7 11 4 6 1006.6 1006.6 0.0
27/05:30pm 10.3 7.5 5.3 71 2.3 SSW 9 13 5 7 1006.3 1006.3 0.0
27/05:00pm 10.5 7.3 5.3 70 2.4 SSW 11 17 6 9 1006.1 1006.1 0.0

Latest Capital City Observations: Canberra | Sydney | Melbourne | Brisbane | Adelaide | Perth | Hobart | Darwin

Other Formats:

Comma delimited format used in spreadsheet applications
http://www.bom.gov.au/fwo/IDT60901/IDT60901.94988.axf

JavaScript Object Notation format (JSON) in row-major order
http://www.bom.gov.au/fwo/IDT60901/IDT60901.94988.json